Alton, Virginia
Current Conditions -  °F | °C
As of 10:35 AM on Sunday 23 Nov 2014 (Local Time) from KW78 Reporting Station
Scattered Clouds Scattered Clouds  
Wind Chill: 42°   Ceiling: Unl
Heat Index: 42°   Visibility: 10mi
Dew Point: 30°   Wind: 0mph
Humidity: 63%   Direction: NA
Pressure: 30.22"   Gusts: NA
Location:  36.57°N, 79°W
Report Text: KW78 231535Z AUTO 00000KT 10SM SCT120 06/M01 A3022 RMK AO1 T00551010
Loading
Personal Weather Stations






























Interactive Weather Map New forecast layout! Learn more

10-Day Weather Forecast

Advertisements
Track Severe Weather on mobile